Aviation Digital Data Service (ADDS)

Output produced by METARs form (0628 UTC 19 March 2019)
found at http://www.aviationweather.gov/metar/data/
 
METAR text: TKPK 190100Z 08013KT 9999 BKN020 25/19 Q1017
Conditions at: TKPK (GOLDEN ROCKS/NEV, KN) observed 0100 UTC 19 March 2019
Temperature: 25.0°C (77°F)
Dewpoint: 19.0°C (66°F) [RH = 69%]
Pressure (altimeter): 30.03 inches Hg (1017.0 mb)
Winds: from the E (80 degrees) at 15 MPH (13 knots; 6.7 m/s)
Visibility: 6 or more miles (10+ km)
Ceiling: 2000 feet AGL
Clouds: broken clouds at 2000 feet AGL
Weather: no significant weather observed at this time

METAR text: TKPK 190000Z 08010KT 9999 SCT022 25/18 Q1016
Conditions at: TKPK (GOLDEN ROCKS/NEV, KN) observed 0000 UTC 19 March 2019
Temperature: 25.0°C (77°F)
Dewpoint: 18.0°C (64°F) [RH = 65%]
Pressure (altimeter): 30.00 inches Hg (1016.0 mb)
Winds: from the E (80 degrees) at 12 MPH (10 knots; 5.1 m/s)
Visibility: 6 or more miles (10+ km)
Ceiling: at least 12,000 feet AGL
Clouds: scattered clouds at 2200 feet AGL
Weather: no significant weather observed at this time

METAR text: TKPK 182300Z 08010KT 9999 SCT023 25/18 Q1016
Conditions at: TKPK (GOLDEN ROCKS/NEV, KN) observed 2300 UTC 18 March 2019
Temperature: 25.0°C (77°F)
Dewpoint: 18.0°C (64°F) [RH = 65%]
Pressure (altimeter): 30.00 inches Hg (1016.0 mb)
Winds: from the E (80 degrees) at 12 MPH (10 knots; 5.1 m/s)
Visibility: 6 or more miles (10+ km)
Ceiling: at least 12,000 feet AGL
Clouds: scattered clouds at 2300 feet AGL
Weather: no significant weather observed at this time

METAR text: TKPK 182200Z 08011KT 9999 FEW023 26/18 Q1016
Conditions at: TKPK (GOLDEN ROCKS/NEV, KN) observed 2200 UTC 18 March 2019
Temperature: 26.0°C (79°F)
Dewpoint: 18.0°C (64°F) [RH = 61%]
Pressure (altimeter): 30.00 inches Hg (1016.0 mb)
Winds: from the E (80 degrees) at 13 MPH (11 knots; 5.7 m/s)
Visibility: 6 or more miles (10+ km)
Ceiling: at least 12,000 feet AGL
Clouds: few clouds at 2300 feet AGL
Weather: no significant weather observed at this time

METAR text: TKPK 182100Z 05012KT 9999 FEW023 27/18 Q1015
Conditions at: TKPK (GOLDEN ROCKS/NEV, KN) observed 2100 UTC 18 March 2019
Temperature: 27.0°C (81°F)
Dewpoint: 18.0°C (64°F) [RH = 58%]
Pressure (altimeter): 29.97 inches Hg (1015.0 mb)
Winds: from the NE (50 degrees) at 14 MPH (12 knots; 6.2 m/s)
Visibility: 6 or more miles (10+ km)
Ceiling: at least 12,000 feet AGL
Clouds: few clouds at 2300 feet AGL
Weather: no significant weather observed at this time

METAR text: TKPK 182000Z 08014KT 9999 FEW024 28/18 Q1015
Conditions at: TKPK (GOLDEN ROCKS/NEV, KN) observed 2000 UTC 18 March 2019
Temperature: 28.0°C (82°F)
Dewpoint: 18.0°C (64°F) [RH = 55%]
Pressure (altimeter): 29.97 inches Hg (1015.0 mb)
Winds: from the E (80 degrees) at 16 MPH (14 knots; 7.2 m/s)
Visibility: 6 or more miles (10+ km)
Ceiling: at least 12,000 feet AGL
Clouds: few clouds at 2400 feet AGL
Weather: no significant weather observed at this time

METAR text: TKPK 181900Z 05013KT 9999 FEW024 28/17 Q1016
Conditions at: TKPK (GOLDEN ROCKS/NEV, KN) observed 1900 UTC 18 March 2019
Temperature: 28.0°C (82°F)
Dewpoint: 17.0°C (63°F) [RH = 51%]
Pressure (altimeter): 30.00 inches Hg (1016.0 mb)
Winds: from the NE (50 degrees) at 15 MPH (13 knots; 6.7 m/s)
Visibility: 6 or more miles (10+ km)
Ceiling: at least 12,000 feet AGL
Clouds: few clouds at 2400 feet AGL
Weather: no significant weather observed at this time

METAR text: TKPK 181800Z 05013KT 9999 FEW023 28/18 Q1016
Conditions at: TKPK (GOLDEN ROCKS/NEV, KN) observed 1800 UTC 18 March 2019
Temperature: 28.0°C (82°F)
Dewpoint: 18.0°C (64°F) [RH = 55%]
Pressure (altimeter): 30.00 inches Hg (1016.0 mb)
Winds: from the NE (50 degrees) at 15 MPH (13 knots; 6.7 m/s)
Visibility: 6 or more miles (10+ km)
Ceiling: at least 12,000 feet AGL
Clouds: few clouds at 2300 feet AGL
Weather: no significant weather observed at this time

METAR text: TKPK 181700Z 07011KT 9999 FEW023 28/18 Q1017
Conditions at: TKPK (GOLDEN ROCKS/NEV, KN) observed 1700 UTC 18 March 2019
Temperature: 28.0°C (82°F)
Dewpoint: 18.0°C (64°F) [RH = 55%]
Pressure (altimeter): 30.03 inches Hg (1017.0 mb)
Winds: from the ENE (70 degrees) at 13 MPH (11 knots; 5.7 m/s)
Visibility: 6 or more miles (10+ km)
Ceiling: at least 12,000 feet AGL
Clouds: few clouds at 2300 feet AGL
Weather: no significant weather observed at this time

METAR text: TKPK 181600Z 05015KT 9999 SCT024 28/18 Q1018
Conditions at: TKPK (GOLDEN ROCKS/NEV, KN) observed 1600 UTC 18 March 2019
Temperature: 28.0°C (82°F)
Dewpoint: 18.0°C (64°F) [RH = 55%]
Pressure (altimeter): 30.06 inches Hg (1018.0 mb)
Winds: from the NE (50 degrees) at 17 MPH (15 knots; 7.7 m/s)
Visibility: 6 or more miles (10+ km)
Ceiling: at least 12,000 feet AGL
Clouds: scattered clouds at 2400 feet AGL
Weather: no significant weather observed at this time

METAR text: TKPK 181500Z 07017KT 9999 SCT024 29/18 Q1018
Conditions at: TKPK (GOLDEN ROCKS/NEV, KN) observed 1500 UTC 18 March 2019
Temperature: 29.0°C (84°F)
Dewpoint: 18.0°C (64°F) [RH = 52%]
Pressure (altimeter): 30.06 inches Hg (1018.0 mb)
Winds: from the ENE (70 degrees) at 20 MPH (17 knots; 8.7 m/s)
Visibility: 6 or more miles (10+ km)
Ceiling: at least 12,000 feet AGL
Clouds: scattered clouds at 2400 feet AGL
Weather: no significant weather observed at this time

METAR text: TKPK 181400Z 07016KT 9999 FEW024 28/18 Q1018
Conditions at: TKPK (GOLDEN ROCKS/NEV, KN) observed 1400 UTC 18 March 2019
Temperature: 28.0°C (82°F)
Dewpoint: 18.0°C (64°F) [RH = 55%]
Pressure (altimeter): 30.06 inches Hg (1018.0 mb)
Winds: from the ENE (70 degrees) at 18 MPH (16 knots; 8.2 m/s)
Visibility: 6 or more miles (10+ km)
Ceiling: at least 12,000 feet AGL
Clouds: few clouds at 2400 feet AGL
Weather: no significant weather observed at this time

METAR text: TKPK 181300Z 08016KT 9999 SCT023 27/18 Q1018
Conditions at: TKPK (GOLDEN ROCKS/NEV, KN) observed 1300 UTC 18 March 2019
Temperature: 27.0°C (81°F)
Dewpoint: 18.0°C (64°F) [RH = 58%]
Pressure (altimeter): 30.06 inches Hg (1018.0 mb)
Winds: from the E (80 degrees) at 18 MPH (16 knots; 8.2 m/s)
Visibility: 6 or more miles (10+ km)
Ceiling: at least 12,000 feet AGL
Clouds: scattered clouds at 2300 feet AGL
Weather: no significant weather observed at this time

METAR text: TKPK 181200Z 08014KT 9999 FEW023 26/18 Q1018
Conditions at: TKPK (GOLDEN ROCKS/NEV, KN) observed 1200 UTC 18 March 2019
Temperature: 26.0°C (79°F)
Dewpoint: 18.0°C (64°F) [RH = 61%]
Pressure (altimeter): 30.06 inches Hg (1018.0 mb)
Winds: from the E (80 degrees) at 16 MPH (14 knots; 7.2 m/s)
Visibility: 6 or more miles (10+ km)
Ceiling: at least 12,000 feet AGL
Clouds: few clouds at 2300 feet AGL
Weather: no significant weather observed at this time

METAR text: TKPK 181100Z 05014KT 9999 SCT022 24/19 Q1017
Conditions at: TKPK (GOLDEN ROCKS/NEV, KN) observed 1100 UTC 18 March 2019
Temperature: 24.0°C (75°F)
Dewpoint: 19.0°C (66°F) [RH = 74%]
Pressure (altimeter): 30.03 inches Hg (1017.0 mb)
Winds: from the NE (50 degrees) at 16 MPH (14 knots; 7.2 m/s)
Visibility: 6 or more miles (10+ km)
Ceiling: at least 12,000 feet AGL
Clouds: scattered clouds at 2200 feet AGL
Weather: no significant weather observed at this time

METAR text: TKPK 181000Z 06009KT 9999 FEW023 24/18 Q1016
Conditions at: TKPK (GOLDEN ROCKS/NEV, KN) observed 1000 UTC 18 March 2019
Temperature: 24.0°C (75°F)
Dewpoint: 18.0°C (64°F) [RH = 69%]
Pressure (altimeter): 30.00 inches Hg (1016.0 mb)
Winds: from the ENE (60 degrees) at 10 MPH (9 knots; 4.6 m/s)
Visibility: 6 or more miles (10+ km)
Ceiling: at least 12,000 feet AGL
Clouds: few clouds at 2300 feet AGL
Weather: no significant weather observed at this time

METAR text: TKPK 180100Z 08011KT 9999 FEW022 25/20 Q1017
Conditions at: TKPK (GOLDEN ROCKS/NEV, KN) observed 0100 UTC 18 March 2019
Temperature: 25.0°C (77°F)
Dewpoint: 20.0°C (68°F) [RH = 74%]
Pressure (altimeter): 30.03 inches Hg (1017.0 mb)
Winds: from the E (80 degrees) at 13 MPH (11 knots; 5.7 m/s)
Visibility: 6 or more miles (10+ km)
Ceiling: at least 12,000 feet AGL
Clouds: few clouds at 2200 feet AGL
Weather: no significant weather observed at this time

METAR text: TKPK 180000Z 07015KT 9999 FEW023 25/20 Q1016
Conditions at: TKPK (GOLDEN ROCKS/NEV, KN) observed 0000 UTC 18 March 2019
Temperature: 25.0°C (77°F)
Dewpoint: 20.0°C (68°F) [RH = 74%]
Pressure (altimeter): 30.00 inches Hg (1016.0 mb)
Winds: from the ENE (70 degrees) at 17 MPH (15 knots; 7.7 m/s)
Visibility: 6 or more miles (10+ km)
Ceiling: at least 12,000 feet AGL
Clouds: few clouds at 2300 feet AGL
Weather: no significant weather observed at this time

METAR text: TKPK 172300Z 07015KT 9999 FEW021 25/20 Q1016
Conditions at: TKPK (GOLDEN ROCKS/NEV, KN) observed 2300 UTC 17 March 2019
Temperature: 25.0°C (77°F)
Dewpoint: 20.0°C (68°F) [RH = 74%]
Pressure (altimeter): 30.00 inches Hg (1016.0 mb)
Winds: from the ENE (70 degrees) at 17 MPH (15 knots; 7.7 m/s)
Visibility: 6 or more miles (10+ km)
Ceiling: at least 12,000 feet AGL
Clouds: few clouds at 2100 feet AGL
Weather: no significant weather observed at this time

METAR text: TKPK 172200Z 08012KT 9999 FEW021 26/20 Q1015
Conditions at: TKPK (GOLDEN ROCKS/NEV, KN) observed 2200 UTC 17 March 2019
Temperature: 26.0°C (79°F)
Dewpoint: 20.0°C (68°F) [RH = 70%]
Pressure (altimeter): 29.97 inches Hg (1015.0 mb)
Winds: from the E (80 degrees) at 14 MPH (12 knots; 6.2 m/s)
Visibility: 6 or more miles (10+ km)
Ceiling: at least 12,000 feet AGL
Clouds: few clouds at 2100 feet AGL
Weather: no significant weather observed at this time

METAR text: TKPK 172000Z 07014KT 9999 FEW022 28/20 Q1015
Conditions at: TKPK (GOLDEN ROCKS/NEV, KN) observed 2000 UTC 17 March 2019
Temperature: 28.0°C (82°F)
Dewpoint: 20.0°C (68°F) [RH = 62%]
Pressure (altimeter): 29.97 inches Hg (1015.0 mb)
Winds: from the ENE (70 degrees) at 16 MPH (14 knots; 7.2 m/s)
Visibility: 6 or more miles (10+ km)
Ceiling: at least 12,000 feet AGL
Clouds: few clouds at 2200 feet AGL
Weather: no significant weather observed at this time

METAR text: TKPK 171900Z 07014KT 9999 FEW020 28/19 Q1015
Conditions at: TKPK (GOLDEN ROCKS/NEV, KN) observed 1900 UTC 17 March 2019
Temperature: 28.0°C (82°F)
Dewpoint: 19.0°C (66°F) [RH = 58%]
Pressure (altimeter): 29.97 inches Hg (1015.0 mb)
Winds: from the ENE (70 degrees) at 16 MPH (14 knots; 7.2 m/s)
Visibility: 6 or more miles (10+ km)
Ceiling: at least 12,000 feet AGL
Clouds: few clouds at 2000 feet AGL
Weather: no significant weather observed at this time

Forecast for: TKPK (GOLDEN ROCKS/NEV, KN)
Text: TKPK 190528Z 1906/2006 08013KT P6SM SCT020
Forecast period: 0600 to 1400 UTC 19 March 2019
Forecast type: FROM: standard forecast or significant change
Winds: from the E (80 degrees) at 15 MPH (13 knots; 6.7 m/s)
Visibility: 6 or more miles 10+ km)
Ceiling: at least 12,000 feet AGL
Clouds: scattered clouds at 2000 feet AGL
Weather: no significant weather forecast for this period
Text: FM191400 07013KT P6SM FEW020
Forecast period: 1400 to 2200 UTC 19 March 2019
Forecast type: FROM: standard forecast or significant change
Winds: from the ENE (70 degrees) at 15 MPH (13 knots; 6.7 m/s)
Visibility: 6 or more miles 10+ km)
Ceiling: at least 12,000 feet AGL
Clouds: few clouds at 2000 feet AGL
Weather: no significant weather forecast for this period
Text: FM192200 08010KT P6SM FEW020 AMD NOT SKED TIL 191100
Forecast period: 2200 UTC 19 March 2019 to 0600 UTC 20 March 2019
Forecast type: FROM: standard forecast or significant change
Winds: from the E (80 degrees) at 12 MPH (10 knots; 5.1 m/s)
Visibility: 6 or more miles 10+ km)
Ceiling: at least 12,000 feet AGL
Clouds: few clouds at 2000 feet AGL
Weather: no significant weather forecast for this period